Time,TemperatureF,DewpointF,PressureIn,WindDirection,WindDirectionDegrees,WindSpeedMPH,WindSpeedGustMPH,Humidity,HourlyPrecipIn,Conditions,Clouds,dailyrainin,SoftwareType,DateUTC
2013-02-15 00:02:00,37.0,33.0,30.03,NE,35,0.0,0.0,86,0.00,,,0.00,,2013-02-15 05:02:00,
2013-02-15 00:12:00,37.0,33.0,30.03,NE,35,0.0,0.0,86,0.00,,,0.00,,2013-02-15 05:12:00,
2013-02-15 00:22:00,36.0,33.0,30.03,NE,36,0.0,0.0,87,0.00,,,0.00,,2013-02-15 05:22:00,
2013-02-15 00:32:00,36.0,32.0,30.03,NE,36,0.0,0.0,86,0.00,,,0.00,,2013-02-15 05:32:00,
2013-02-15 00:42:00,36.0,32.0,30.03,NE,36,0.0,0.0,86,0.00,,,0.00,,2013-02-15 05:42:00,
2013-02-15 00:52:00,35.0,32.0,30.03,NE,36,0.0,0.0,89,0.00,,,0.00,,2013-02-15 05:52:00,
2013-02-15 01:02:00,35.0,32.0,30.03,NE,36,0.0,0.0,87,0.00,,,0.00,,2013-02-15 06:02:00,
2013-02-15 01:11:00,36.0,33.0,30.03,NE,36,0.0,0.0,87,0.00,,,0.00,,2013-02-15 06:11:00,
2013-02-15 01:22:00,36.0,33.0,30.03,NE,36,0.0,0.0,87,0.00,,,0.00,,2013-02-15 06:22:00,
2013-02-15 01:32:00,36.0,33.0,30.03,NE,35,0.0,0.0,89,0.00,,,0.00,,2013-02-15 06:32:00,
2013-02-15 01:42:00,36.0,33.0,30.03,NE,35,0.0,0.0,89,0.00,,,0.00,,2013-02-15 06:42:00,
2013-02-15 01:52:00,35.0,32.0,30.03,NE,36,0.0,0.0,89,0.00,,,0.00,,2013-02-15 06:52:00,
2013-02-15 02:01:00,36.0,33.0,30.03,NE,37,0.0,0.0,90,0.00,,,0.00,,2013-02-15 07:01:00,
2013-02-15 02:11:00,36.0,33.0,30.03,NE,37,0.0,0.0,90,0.00,,,0.00,,2013-02-15 07:11:00,
2013-02-15 02:21:00,35.0,32.0,30.03,NE,35,0.0,0.0,89,0.00,,,0.00,,2013-02-15 07:21:00,
2013-02-15 02:32:00,35.0,32.0,30.03,NE,34,0.0,0.0,89,0.00,,,0.00,,2013-02-15 07:32:00,
2013-02-15 02:42:00,35.0,32.0,30.03,NE,34,0.0,0.0,89,0.00,,,0.00,,2013-02-15 07:42:00,
2013-02-15 02:52:00,35.0,32.0,30.03,NE,36,0.0,0.0,90,0.00,,,0.00,,2013-02-15 07:52:00,
2013-02-15 03:01:00,34.0,31.0,30.03,NE,36,0.0,0.0,89,0.00,,,0.00,,2013-02-15 08:01:00,
2013-02-15 03:11:00,34.0,31.0,30.03,NE,36,0.0,0.0,89,0.00,,,0.00,,2013-02-15 08:11:00,
2013-02-15 03:21:00,34.0,31.0,30.03,NE,36,0.0,0.0,89,0.00,,,0.00,,2013-02-15 08:21:00,
2013-02-15 03:32:00,34.0,31.0,30.03,NNE,33,0.0,0.0,90,0.00,,,0.00,,2013-02-15 08:32:00,
2013-02-15 03:42:00,34.0,31.0,30.03,NNE,33,0.0,0.0,90,0.00,,,0.00,,2013-02-15 08:42:00,
2013-02-15 03:53:00,33.0,31.0,30.03,NE,34,0.0,0.0,91,0.00,,,0.00,,2013-02-15 08:53:00,
2013-02-15 04:02:00,34.0,32.0,30.03,NE,35,0.0,0.0,92,0.00,,,0.00,,2013-02-15 09:02:00,
2013-02-15 04:12:00,34.0,32.0,30.03,NE,35,0.0,0.0,92,0.00,,,0.00,,2013-02-15 09:12:00,
2013-02-15 04:21:00,34.0,32.0,30.03,NE,35,0.0,0.0,94,0.00,,,0.00,,2013-02-15 09:21:00,
2013-02-15 04:32:00,35.0,33.0,30.03,NE,35,0.0,6.0,94,0.00,,,0.00,,2013-02-15 09:32:00,
2013-02-15 04:42:00,35.0,33.0,30.03,NE,35,0.0,6.0,94,0.00,,,0.00,,2013-02-15 09:42:00,
2013-02-15 04:52:00,34.0,32.0,30.03,NNE,33,3.0,5.0,92,0.00,,,0.00,,2013-02-15 09:52:00,
2013-02-15 05:01:00,34.0,32.0,30.03,NE,34,3.0,4.0,93,0.00,,,0.00,,2013-02-15 10:01:00,
2013-02-15 05:11:00,34.0,32.0,30.03,NE,34,3.0,4.0,93,0.00,,,0.00,,2013-02-15 10:11:00,
2013-02-15 05:21:00,35.0,33.0,30.03,NE,40,0.0,4.0,93,0.00,,,0.00,,2013-02-15 10:21:00,
2013-02-15 05:32:00,33.0,31.0,30.03,NE,34,0.0,0.0,93,0.00,,,0.00,,2013-02-15 10:32:00,
2013-02-15 05:42:00,33.0,31.0,30.03,NE,34,0.0,0.0,93,0.00,,,0.00,,2013-02-15 10:42:00,
2013-02-15 05:52:00,31.0,29.0,30.03,NE,35,0.0,0.0,93,0.00,,,0.00,,2013-02-15 10:52:00,
2013-02-15 06:01:00,32.0,30.0,30.03,NE,35,0.0,0.0,93,0.00,,,0.00,,2013-02-15 11:01:00,
2013-02-15 06:11:00,32.0,30.0,30.03,NE,35,0.0,0.0,93,0.00,,,0.00,,2013-02-15 11:11:00,
2013-02-15 06:23:00,31.0,29.0,30.03,NE,36,0.0,0.0,93,0.00,,,0.00,,2013-02-15 11:23:00,
2013-02-15 06:32:00,31.0,29.0,30.03,NE,34,0.0,0.0,93,0.00,,,0.00,,2013-02-15 11:32:00,
2013-02-15 06:42:00,31.0,29.0,30.03,NE,34,0.0,0.0,93,0.00,,,0.00,,2013-02-15 11:42:00,
2013-02-15 06:52:00,30.0,28.0,30.03,NE,35,0.0,0.0,93,0.00,,,0.00,,2013-02-15 11:52:00,
2013-02-15 07:02:00,30.0,28.0,30.03,NNE,33,0.0,0.0,93,0.00,,,0.00,,2013-02-15 12:02:00,
2013-02-15 07:11:00,30.0,28.0,30.03,NNE,33,0.0,0.0,93,0.00,,,0.00,,2013-02-15 12:11:00,
2013-02-15 07:21:00,30.0,28.0,30.03,NE,35,0.0,0.0,93,0.00,,,0.00,,2013-02-15 12:21:00,
2013-02-15 07:32:00,29.0,27.0,30.06,NE,36,0.0,0.0,93,0.00,,,0.00,,2013-02-15 12:32:00,
2013-02-15 07:52:00,29.0,27.0,30.06,NE,37,0.0,3.0,93,0.00,,,0.00,,2013-02-15 12:52:00,
2013-02-15 08:02:00,31.0,29.0,30.06,NE,35,0.0,0.0,93,0.00,,,0.00,,2013-02-15 13:02:00,
2013-02-15 08:11:00,31.0,29.0,30.06,NE,35,0.0,0.0,93,0.00,,,0.00,,2013-02-15 13:11:00,
2013-02-15 08:22:00,32.0,30.0,30.06,NE,35,0.0,0.0,93,0.00,,,0.00,,2013-02-15 13:22:00,
2013-02-15 08:32:00,33.0,31.0,30.06,NE,35,0.0,0.0,92,0.00,,,0.00,,2013-02-15 13:32:00,
2013-02-15 08:42:00,33.0,31.0,30.06,NE,35,0.0,0.0,92,0.00,,,0.00,,2013-02-15 13:42:00,
2013-02-15 08:52:00,36.0,34.0,30.09,NE,35,3.0,3.0,92,0.00,,,0.00,,2013-02-15 13:52:00,
2013-02-15 09:01:00,36.0,34.0,30.09,NE,35,0.0,5.0,92,0.00,,,0.00,,2013-02-15 14:01:00,
2013-02-15 09:12:00,36.0,34.0,30.09,NE,35,0.0,5.0,92,0.00,,,0.00,,2013-02-15 14:12:00,
2013-02-15 09:21:00,39.0,36.0,30.09,NE,36,0.0,0.0,89,0.00,,,0.00,,2013-02-15 14:21:00,
2013-02-15 09:32:00,40.0,37.0,30.06,NE,35,0.0,0.0,89,0.00,,,0.00,,2013-02-15 14:32:00,
2013-02-15 09:42:00,40.0,37.0,30.06,NE,35,0.0,0.0,89,0.00,,,0.00,,2013-02-15 14:42:00,
2013-02-15 09:52:00,42.0,39.0,30.06,NE,36,0.0,5.0,89,0.00,,,0.00,,2013-02-15 14:52:00,
2013-02-15 10:02:00,44.0,41.0,30.06,NE,36,3.0,4.0,89,0.00,,,0.00,,2013-02-15 15:02:00,
2013-02-15 10:11:00,44.0,41.0,30.06,NE,36,3.0,4.0,89,0.00,,,0.00,,2013-02-15 15:11:00,
2013-02-15 10:22:00,46.0,41.0,30.06,NE,37,3.0,6.0,84,0.00,,,0.00,,2013-02-15 15:22:00,
2013-02-15 10:32:00,48.0,41.0,30.06,NE,37,5.0,7.0,77,0.00,,,0.00,,2013-02-15 15:32:00,
2013-02-15 10:42:00,51.0,36.0,30.06,ENE,73,5.0,8.0,56,0.00,,,0.00,,2013-02-15 15:42:00,
2013-02-15 10:52:00,51.0,36.0,30.06,ENE,73,5.0,8.0,56,0.00,,,0.00,,2013-02-15 15:52:00,
2013-02-15 11:02:00,52.0,36.0,30.06,NE,39,7.0,8.0,54,0.00,,,0.00,,2013-02-15 16:02:00,
2013-02-15 11:11:00,52.0,36.0,30.06,NE,39,7.0,8.0,54,0.00,,,0.00,,2013-02-15 16:11:00,
2013-02-15 11:22:00,53.0,35.0,30.03,ESE,107,3.0,10.0,50,0.00,,,0.00,,2013-02-15 16:22:00,
2013-02-15 11:32:00,54.0,34.0,30.06,NE,41,5.0,10.0,47,0.00,,,0.00,,2013-02-15 16:32:00,
2013-02-15 11:42:00,54.0,34.0,30.06,NE,41,5.0,10.0,47,0.00,,,0.00,,2013-02-15 16:42:00,
2013-02-15 11:52:00,57.0,35.0,30.03,ENE,60,8.0,11.0,43,0.00,,,0.00,,2013-02-15 16:52:00,
2013-02-15 12:01:00,58.0,34.0,30.03,NE,55,10.0,11.0,41,0.00,,,0.00,,2013-02-15 17:01:00,
2013-02-15 12:11:00,59.0,35.0,30.03,ENE,58,12.0,13.0,40,0.00,,,0.00,,2013-02-15 17:11:00,
2013-02-15 12:21:00,59.0,35.0,30.03,ENE,58,12.0,13.0,40,0.00,,,0.00,,2013-02-15 17:21:00,
2013-02-15 12:32:00,60.0,36.0,30.03,NE,39,12.0,18.0,40,0.00,,,0.00,,2013-02-15 17:32:00,
2013-02-15 12:42:00,60.0,36.0,30.03,NE,39,12.0,18.0,40,0.00,,,0.00,,2013-02-15 17:42:00,
2013-02-15 12:52:00,61.0,34.0,30.03,NE,44,13.0,17.0,36,0.00,,,0.00,,2013-02-15 17:52:00,
2013-02-15 13:01:00,61.0,34.0,30.00,NE,47,9.0,18.0,36,0.00,,,0.00,,2013-02-15 18:01:00,
2013-02-15 13:11:00,61.0,34.0,30.00,NE,47,9.0,18.0,36,0.00,,,0.00,,2013-02-15 18:11:00,
2013-02-15 13:21:00,62.0,34.0,30.00,East,79,14.0,15.0,35,0.00,,,0.00,,2013-02-15 18:21:00,
2013-02-15 13:32:00,62.0,35.0,30.00,East,99,9.0,19.0,36,0.00,,,0.00,,2013-02-15 18:32:00,
2013-02-15 13:42:00,62.0,35.0,30.00,East,99,9.0,19.0,36,0.00,,,0.00,,2013-02-15 18:42:00,
2013-02-15 13:53:00,62.0,35.0,30.00,NE,42,10.0,14.0,36,0.00,,,0.00,,2013-02-15 18:53:00,
2013-02-15 14:01:00,61.0,35.0,30.00,ESE,107,9.0,17.0,38,0.00,,,0.00,,2013-02-15 19:01:00,
2013-02-15 14:11:00,61.0,35.0,30.00,ESE,107,9.0,17.0,38,0.00,,,0.00,,2013-02-15 19:11:00,
2013-02-15 14:22:00,58.0,33.0,30.00,ENE,72,7.0,16.0,38,0.00,,,0.00,,2013-02-15 19:22:00,
2013-02-15 14:32:00,56.0,34.0,30.00,East,91,12.0,15.0,44,0.00,,,0.00,,2013-02-15 19:32:00,
2013-02-15 14:42:00,56.0,34.0,30.00,East,91,12.0,15.0,44,0.00,,,0.00,,2013-02-15 19:42:00,
2013-02-15 14:52:00,49.0,40.0,30.00,ESE,112,8.0,12.0,71,0.00,,,0.00,,2013-02-15 19:52:00,
2013-02-15 15:01:00,49.0,42.0,30.00,East,97,8.0,12.0,76,0.00,,,0.00,,2013-02-15 20:01:00,
2013-02-15 15:11:00,49.0,42.0,30.00,East,97,8.0,12.0,76,0.00,,,0.00,,2013-02-15 20:11:00,
2013-02-15 15:21:00,49.0,41.0,30.00,ESE,113,7.0,14.0,74,0.00,,,0.00,,2013-02-15 20:21:00,
2013-02-15 15:32:00,48.0,40.0,30.00,ESE,106,9.0,15.0,74,0.00,,,0.00,,2013-02-15 20:32:00,
2013-02-15 15:42:00,48.0,40.0,30.00,ESE,106,9.0,15.0,74,0.00,,,0.00,,2013-02-15 20:42:00,
2013-02-15 15:52:00,49.0,37.0,30.00,ESE,103,9.0,14.0,62,0.00,,,0.00,,2013-02-15 20:52:00,
2013-02-15 16:02:00,49.0,37.0,30.00,East,90,7.0,13.0,62,0.00,,,0.00,,2013-02-15 21:02:00,
2013-02-15 16:11:00,49.0,37.0,30.00,East,90,7.0,13.0,62,0.00,,,0.00,,2013-02-15 21:11:00,
2013-02-15 16:22:00,47.0,36.0,30.00,East,101,12.0,12.0,66,0.00,,,0.00,,2013-02-15 21:22:00,
2013-02-15 16:32:00,48.0,38.0,30.03,ESE,103,6.0,12.0,68,0.00,,,0.00,,2013-02-15 21:32:00,
2013-02-15 16:42:00,48.0,38.0,30.03,ESE,103,6.0,12.0,68,0.00,,,0.00,,2013-02-15 21:42:00,
2013-02-15 16:52:00,45.0,37.0,30.03,ESE,121,12.0,14.0,73,0.00,,,0.00,,2013-02-15 21:52:00,
2013-02-15 17:02:00,44.0,37.0,30.03,ESE,121,8.0,14.0,75,0.00,,,0.00,,2013-02-15 22:02:00,
2013-02-15 17:11:00,44.0,37.0,30.03,ESE,121,8.0,14.0,75,0.00,,,0.00,,2013-02-15 22:11:00,
2013-02-15 17:22:00,44.0,38.0,30.03,SE,141,3.0,9.0,78,0.00,,,0.00,,2013-02-15 22:22:00,
2013-02-15 17:32:00,43.0,36.0,30.03,SSE,157,4.0,9.0,76,0.00,,,0.00,,2013-02-15 22:32:00,
2013-02-15 17:42:00,43.0,36.0,30.03,SSE,157,4.0,9.0,76,0.00,,,0.00,,2013-02-15 22:42:00,
2013-02-15 17:52:00,42.0,36.0,30.06,ESE,120,0.0,4.0,79,0.00,,,0.00,,2013-02-15 22:52:00,
2013-02-15 18:02:00,42.0,36.0,30.06,ESE,118,0.0,0.0,79,0.00,,,0.00,,2013-02-15 23:02:00,
2013-02-15 18:11:00,42.0,36.0,30.06,ESE,118,0.0,0.0,79,0.00,,,0.00,,2013-02-15 23:11:00,
2013-02-15 18:21:00,42.0,37.0,30.06,East,82,0.0,7.0,81,0.00,,,0.00,,2013-02-15 23:21:00,
2013-02-15 18:32:00,42.0,37.0,30.06,East,80,0.0,4.0,81,0.00,,,0.00,,2013-02-15 23:32:00,
2013-02-15 18:42:00,42.0,37.0,30.06,East,80,0.0,4.0,81,0.00,,,0.00,,2013-02-15 23:42:00,
2013-02-15 18:52:00,42.0,37.0,30.06,East,82,0.0,0.0,82,0.00,,,0.00,,2013-02-15 23:52:00,
2013-02-15 19:02:00,42.0,37.0,30.06,East,80,0.0,0.0,82,0.00,,,0.00,,2013-02-16 00:02:00,
2013-02-15 19:11:00,42.0,37.0,30.06,East,80,0.0,0.0,82,0.00,,,0.00,,2013-02-16 00:11:00,
2013-02-15 19:22:00,42.0,38.0,30.06,East,82,0.0,0.0,84,0.00,,,0.00,,2013-02-16 00:22:00,
2013-02-15 19:32:00,42.0,38.0,30.06,East,82,0.0,0.0,85,0.00,,,0.00,,2013-02-16 00:32:00,
2013-02-15 19:42:00,42.0,38.0,30.06,East,82,0.0,0.0,85,0.00,,,0.00,,2013-02-16 00:42:00,
2013-02-15 19:52:00,42.0,38.0,30.09,East,80,0.0,4.0,84,0.00,,,0.00,,2013-02-16 00:52:00,
2013-02-15 20:02:00,42.0,38.0,30.09,East,101,8.0,9.0,85,0.00,,,0.00,,2013-02-16 01:02:00,
2013-02-15 20:11:00,42.0,38.0,30.09,East,101,8.0,9.0,85,0.00,,,0.00,,2013-02-16 01:11:00,
2013-02-15 20:21:00,40.0,36.0,30.09,ESE,115,0.0,5.0,84,0.00,,,0.00,,2013-02-16 01:21:00,
2013-02-15 20:32:00,40.0,36.0,30.09,ESE,114,0.0,0.0,84,0.00,,,0.00,,2013-02-16 01:32:00,
2013-02-15 20:42:00,40.0,36.0,30.09,ESE,114,0.0,0.0,84,0.00,,,0.00,,2013-02-16 01:42:00,
2013-02-15 20:52:00,40.0,36.0,30.09,ESE,110,0.0,0.0,84,0.00,,,0.00,,2013-02-16 01:52:00,
2013-02-15 21:01:00,40.0,36.0,30.09,ESE,114,3.0,3.0,84,0.00,,,0.00,,2013-02-16 02:01:00,
2013-02-15 21:11:00,40.0,36.0,30.09,ESE,114,3.0,3.0,84,0.00,,,0.00,,2013-02-16 02:11:00,
2013-02-15 21:21:00,39.0,35.0,30.09,ESE,115,0.0,3.0,84,0.00,,,0.00,,2013-02-16 02:21:00,
2013-02-15 21:32:00,39.0,35.0,30.09,ESE,115,0.0,3.0,84,0.00,,,0.00,,2013-02-16 02:32:00,
2013-02-15 21:42:00,39.0,35.0,30.09,ESE,115,0.0,3.0,84,0.00,,,0.00,,2013-02-16 02:42:00,
2013-02-15 21:52:00,39.0,35.0,30.09,ESE,114,0.0,3.0,84,0.00,,,0.00,,2013-02-16 02:52:00,
2013-02-15 22:02:00,38.0,34.0,30.09,ESE,114,0.0,0.0,84,0.00,,,0.00,,2013-02-16 03:02:00,
2013-02-15 22:11:00,38.0,34.0,30.09,ESE,114,0.0,0.0,84,0.00,,,0.00,,2013-02-16 03:11:00,
2013-02-15 22:21:00,39.0,35.0,30.09,ESE,114,0.0,3.0,85,0.00,,,0.00,,2013-02-16 03:21:00,
2013-02-15 22:32:00,39.0,35.0,30.09,ESE,113,0.0,0.0,86,0.00,,,0.00,,2013-02-16 03:32:00,
2013-02-15 22:42:00,39.0,35.0,30.09,ESE,113,0.0,0.0,86,0.00,,,0.00,,2013-02-16 03:42:00,
2013-02-15 22:52:00,39.0,35.0,30.09,ESE,113,0.0,0.0,87,0.00,,,0.00,,2013-02-16 03:52:00,
2013-02-15 23:01:00,40.0,36.0,30.09,ESE,116,0.0,4.0,87,0.00,,,0.00,,2013-02-16 04:01:00,
2013-02-15 23:11:00,40.0,36.0,30.09,ESE,116,0.0,4.0,87,0.00,,,0.00,,2013-02-16 04:11:00,
2013-02-15 23:21:00,39.0,36.0,30.09,ESE,116,0.0,4.0,89,0.00,,,0.00,,2013-02-16 04:21:00,
2013-02-15 23:32:00,38.0,35.0,30.09,ESE,116,0.0,0.0,89,0.00,,,0.00,,2013-02-16 04:32:00,
2013-02-15 23:42:00,38.0,35.0,30.09,ESE,116,0.0,0.0,89,0.00,,,0.00,,2013-02-16 04:42:00,
2013-02-15 23:52:00,37.0,35.0,30.09,ESE,117,0.0,4.0,92,0.00,,,0.00,,2013-02-16 04:52:00,